»·PEaware :: UAL2423 CYVR-KSFO

UAL2423 :: CYVR-KSFO

FLIGHT INFORMATION

Flight Status: Arrived
Operator:
United Airlines
More flights by this operator :: More flights under this callsign
Pilot: Jacob H. (10561)
Aircraft: BOEING 737-800
(B738)
More flights by this aircraft type
Origin: CYVR Vancouver Intl
Canada
Destination: KSFO San Francisco Intl
United States
More flights between these airports :: More routes between these airports
Route: +YVR YYJ J589 RBG MLBEC BDEGA2
File this flight plan on PilotEdge
Remarks:
Altitude:
(Current/Filed)
35,000ft
Speed:
(Current/Filed)
454kts
Departed: 20-Aug-17 02:06 PM
Arrived: 20-Aug-17 03:57 PM
Distance/Time
Traveled:
695nm/1:51
Distance/Time
To Go:
Arrived

Flight Plot

Page will automatically refresh every two minutes.

Flight plan parsing failed; only flown route is shown


Map Options




Map Legend


Flown Route
Filed Route
Departure Airport
Arrival Airport
Navaid (VOR, NDB)
Fix

Horizontal Profiles

Position Reports

Time Latitude Longitude Heading Altitude Ground
Speed
20-Aug-17 13:31 49.194212 -123.182571 52 20ft 0kts
20-Aug-17 13:32 49.194212 -123.182571 52 20ft 0kts
20-Aug-17 13:33 49.194212 -123.182571 52 20ft 0kts
20-Aug-17 13:34 49.194212 -123.182571 52 20ft 0kts
20-Aug-17 13:35 49.194212 -123.182571 52 20ft 0kts
20-Aug-17 13:36 49.194212 -123.182571 52 20ft 0kts
20-Aug-17 13:37 49.194212 -123.182571 52 20ft 0kts
20-Aug-17 13:38 49.194212 -123.182571 52 20ft 0kts
20-Aug-17 13:39 49.194212 -123.182571 52 20ft 0kts
20-Aug-17 13:40 49.194212 -123.182571 52 20ft 0kts
20-Aug-17 13:41 49.194212 -123.182571 52 20ft 0kts
20-Aug-17 13:42 49.194212 -123.182571 52 20ft 0kts
20-Aug-17 13:43 49.194212 -123.182571 52 20ft 0kts
20-Aug-17 13:44 49.194112 -123.182766 52 21ft 2kts
20-Aug-17 13:45 49.193665 -123.183161 337 20ft 1kts
20-Aug-17 13:46 49.193568 -123.182733 269 21ft 0kts
20-Aug-17 13:47 49.193568 -123.182733 269 20ft 0kts
20-Aug-17 13:48 49.193568 -123.182733 269 20ft 0kts
20-Aug-17 13:49 49.193568 -123.182733 269 20ft 0kts
20-Aug-17 13:50 49.193568 -123.182733 269 20ft 0kts
20-Aug-17 13:51 49.193568 -123.182733 269 20ft 0kts
20-Aug-17 13:52 49.193568 -123.182733 269 20ft 0kts
20-Aug-17 13:53 49.193568 -123.182733 269 20ft 0kts
20-Aug-17 13:54 49.193568 -123.182733 269 20ft 0kts
20-Aug-17 13:55 49.193568 -123.182733 269 20ft 0kts
20-Aug-17 13:56 49.193568 -123.182733 269 20ft 0kts
20-Aug-17 13:57 49.193568 -123.182733 269 20ft 0kts
20-Aug-17 13:58 49.193568 -123.182733 269 20ft 0kts
20-Aug-17 13:59 49.193568 -123.182733 269 20ft 0kts
20-Aug-17 14:00 49.193568 -123.182733 269 20ft 0kts
20-Aug-17 14:01 49.193634 -123.184269 278 20ft 7kts
20-Aug-17 14:02 49.193665 -123.187904 259 20ft 5kts
20-Aug-17 14:03 49.194038 -123.189664 321 21ft 4kts
20-Aug-17 14:04 49.195725 -123.191683 321 21ft 10kts
20-Aug-17 14:05 49.197084 -123.193311 322 20ft 3kts
20-Aug-17 14:06 49.199018 -123.195634 321 21ft 14kts
20-Aug-17 14:07 49.202895 -123.200267 323 21ft 15kts
20-Aug-17 14:08 49.203764 -123.200827 4 20ft 0kts
20-Aug-17 14:09 49.204665 -123.200523 32 20ft 11kts
20-Aug-17 14:10 49.201317 -123.167342 101 262ft 153kts
20-Aug-17 14:11 49.184323 -123.110237 141 2081ft 166kts
20-Aug-17 14:12 49.143237 -123.121041 215 4049ft 179kts
20-Aug-17 14:13 49.100892 -123.162521 206 6346ft 187kts
20-Aug-17 14:14 49.057571 -123.199747 208 7320ft 257kts
20-Aug-17 14:15 48.991467 -123.256818 209 10132ft 279kts
20-Aug-17 14:16 48.919570 -123.318469 212 12103ft 319kts
20-Aug-17 14:17 48.844597 -123.383070 213 14732ft 328kts
20-Aug-17 14:18 48.751866 -123.462997 213 17395ft 342kts
20-Aug-17 14:19 48.655466 -123.480172 183 19478ft 366kts
20-Aug-17 14:20 48.554621 -123.476500 182 21363ft 378kts
20-Aug-17 14:21 48.469370 -123.472768 182 22781ft 389kts
20-Aug-17 14:22 48.360916 -123.467923 182 24752ft 402kts
20-Aug-17 14:23 48.247972 -123.462888 183 26458ft 414kts
20-Aug-17 14:24 48.133315 -123.457207 183 28394ft 413kts
20-Aug-17 14:25 48.022634 -123.451773 183 29850ft 414kts
20-Aug-17 14:26 47.908655 -123.446185 183 31202ft 413kts
20-Aug-17 14:27 47.798879 -123.440825 183 32364ft 412kts
20-Aug-17 14:28 47.685149 -123.435297 183 33412ft 411kts
20-Aug-17 14:29 47.571661 -123.429815 183 34070ft 412kts
20-Aug-17 14:30 47.458478 -123.424377 183 34675ft 411kts
20-Aug-17 14:31 47.344552 -123.418914 183 35193ft 412kts
20-Aug-17 14:32 47.231160 -123.413540 183 35211ft 434kts
20-Aug-17 14:33 47.108015 -123.407739 183 35212ft 458kts
20-Aug-17 14:34 46.979092 -123.401859 182 35204ft 477kts
20-Aug-17 14:35 46.850973 -123.395999 182 35192ft 475kts
20-Aug-17 14:36 46.719162 -123.389987 182 35191ft 475kts
20-Aug-17 14:37 46.587728 -123.384063 182 35191ft 475kts
20-Aug-17 14:38 46.457091 -123.378205 182 35191ft 475kts
20-Aug-17 14:39 46.325408 -123.372329 182 35189ft 475kts
20-Aug-17 14:40 46.193983 -123.366494 182 35183ft 475kts
20-Aug-17 14:41 46.062335 -123.360677 182 35184ft 475kts
20-Aug-17 14:42 45.932737 -123.354976 182 35184ft 475kts
20-Aug-17 14:43 45.802717 -123.349279 182 35167ft 476kts
20-Aug-17 14:44 45.671411 -123.343555 182 35161ft 476kts
20-Aug-17 14:45 45.539883 -123.337851 182 35162ft 476kts
20-Aug-17 14:46 45.408264 -123.332168 182 35163ft 476kts
20-Aug-17 14:47 45.276794 -123.326518 182 35164ft 476kts
20-Aug-17 14:48 45.145306 -123.320893 182 35165ft 476kts
20-Aug-17 14:49 45.013244 -123.315430 180 35167ft 478kts
20-Aug-17 14:50 44.884571 -123.309865 179 35164ft 476kts
20-Aug-17 14:51 44.753043 -123.304266 179 35162ft 476kts
20-Aug-17 14:52 44.627453 -123.298988 179 35163ft 476kts
20-Aug-17 14:53 44.495387 -123.293806 182 35158ft 476kts
20-Aug-17 14:54 44.365581 -123.299698 183 35163ft 475kts
20-Aug-17 14:55 44.233950 -123.305662 183 35160ft 475kts
20-Aug-17 14:56 44.103521 -123.311526 183 35157ft 475kts
20-Aug-17 14:57 43.972745 -123.317373 183 35158ft 475kts
20-Aug-17 14:58 43.843696 -123.323121 183 35152ft 475kts
20-Aug-17 14:59 43.712446 -123.328943 183 35131ft 475kts
20-Aug-17 15:00 43.580632 -123.334766 183 35119ft 476kts
20-Aug-17 15:01 43.449199 -123.340547 183 35118ft 475kts
20-Aug-17 15:02 43.317647 -123.346308 183 35119ft 475kts
20-Aug-17 15:03 43.185845 -123.351443 179 35109ft 476kts
20-Aug-17 15:04 43.054530 -123.339707 177 35120ft 477kts
20-Aug-17 15:05 42.922534 -123.327093 175 35123ft 478kts
20-Aug-17 15:06 42.793002 -123.314479 174 35116ft 476kts
20-Aug-17 15:07 42.661373 -123.301791 174 35106ft 476kts
20-Aug-17 15:08 42.529825 -123.289198 174 35091ft 476kts
20-Aug-17 15:09 42.398290 -123.276660 174 35092ft 476kts
20-Aug-17 15:10 42.267025 -123.264199 174 35093ft 476kts
20-Aug-17 15:11 42.135574 -123.251773 174 35094ft 476kts
20-Aug-17 15:12 42.004043 -123.239390 174 35095ft 476kts
20-Aug-17 15:13 41.874184 -123.227223 174 35062ft 477kts
20-Aug-17 15:14 41.742603 -123.214929 174 35067ft 477kts
20-Aug-17 15:15 41.610924 -123.202684 174 35045ft 477kts
20-Aug-17 15:16 41.479113 -123.190477 174 35047ft 477kts
20-Aug-17 15:17 41.347709 -123.178357 174 35053ft 477kts
20-Aug-17 15:18 41.216000 -123.166259 174 35059ft 477kts
20-Aug-17 15:19 41.085282 -123.154329 174 35046ft 477kts
20-Aug-17 15:20 40.954006 -123.142443 173 34896ft 474kts
20-Aug-17 15:21 40.826718 -123.130794 173 34866ft 474kts
20-Aug-17 15:22 40.696023 -123.118966 173 34862ft 474kts
20-Aug-17 15:23 40.565284 -123.107189 173 34863ft 473kts
20-Aug-17 15:24 40.434795 -123.095485 173 34864ft 471kts
20-Aug-17 15:25 40.304683 -123.083851 173 34865ft 470kts
20-Aug-17 15:26 40.175111 -123.072319 173 34881ft 469kts
20-Aug-17 15:27 40.045870 -123.060851 173 34909ft 467kts
20-Aug-17 15:28 39.917288 -123.049497 173 34921ft 466kts
20-Aug-17 15:29 39.792446 -123.038512 173 34918ft 464kts
20-Aug-17 15:30 39.664214 -123.027272 173 34932ft 464kts
20-Aug-17 15:31 39.537421 -123.016188 173 34934ft 463kts
20-Aug-17 15:32 39.409907 -123.005087 173 34935ft 462kts
20-Aug-17 15:33 39.282428 -122.994032 174 34936ft 461kts
20-Aug-17 15:34 39.155206 -122.983042 174 34937ft 460kts
20-Aug-17 15:35 39.030209 -122.972281 174 34806ft 453kts
20-Aug-17 15:36 38.899668 -122.960963 175 32977ft 497kts
20-Aug-17 15:37 38.790011 -122.933687 166 31089ft 468kts
20-Aug-17 15:38 38.675745 -122.900021 166 28765ft 401kts
20-Aug-17 15:39 38.568608 -122.868409 166 26885ft 404kts
20-Aug-17 15:40 38.460208 -122.836500 165 25028ft 398kts
20-Aug-17 15:41 38.354794 -122.805558 165 23232ft 385kts
20-Aug-17 15:42 38.253020 -122.775769 165 21488ft 375kts
20-Aug-17 15:43 38.153343 -122.746727 165 19783ft 366kts
20-Aug-17 15:44 38.056138 -122.718512 165 18119ft 357kts
20-Aug-17 15:45 37.961223 -122.691030 165 16539ft 349kts
20-Aug-17 15:46 37.875989 -122.645975 140 14674ft 338kts
20-Aug-17 15:47 37.804645 -122.572320 139 12511ft 330kts
20-Aug-17 15:48 37.738347 -122.502461 139 11045ft 289kts
20-Aug-17 15:49 37.696951 -122.419506 112 10424ft 292kts
20-Aug-17 15:50 37.667287 -122.330016 113 8442ft 277kts
20-Aug-17 15:51 37.639439 -122.241634 113 6472ft 276kts
20-Aug-17 15:52 37.610910 -122.153648 113 4513ft 281kts
20-Aug-17 15:53 37.581906 -122.072696 113 3948ft 223kts
20-Aug-17 15:54 37.539046 -122.045996 209 4018ft 201kts
20-Aug-17 15:55 37.505272 -122.093726 272 4004ft 192kts
20-Aug-17 15:56 37.525559 -122.153192 299 3619ft 185kts
20-Aug-17 15:57 37.548319 -122.207764 299 2657ft 163kts
20-Aug-17 15:58 37.567809 -122.253940 295 1821ft 140kts
20-Aug-17 15:59 37.586240 -122.297795 294 1106ft 143kts
20-Aug-17 16:00 37.604765 -122.341467 294 373ft 142kts
20-Aug-17 16:01 37.618865 -122.376160 281 21ft 31kts
20-Aug-17 16:02 37.618943 -122.378058 268 21ft 0kts
20-Aug-17 16:03 37.619492 -122.381686 291 21ft 8kts
20-Aug-17 16:04 37.619048 -122.382936 253 21ft 0kts
20-Aug-17 16:05 37.619192 -122.383510 288 20ft 0kts

Navigation Log

Ident Type
Flight plan parsing failed, navigation log unavailable